sensor_id;sensor_type;location;lat;lon;timestamp;temperature;humidity
17146;DHT22;8688;54.444;18.444;2023-02-26T00:00:19;-0.40;1.00
17146;DHT22;8688;54.444;18.444;2023-02-26T00:02:47;-0.40;1.00
17146;DHT22;8688;54.444;18.444;2023-02-26T00:05:15;-0.40;1.00
17146;DHT22;8688;54.444;18.444;2023-02-26T00:07:43;-0.40;1.00
17146;DHT22;8688;54.444;18.444;2023-02-26T00:10:12;-0.40;1.00
17146;DHT22;8688;54.444;18.444;2023-02-26T00:12:42;-0.40;1.00
17146;DHT22;8688;54.444;18.444;2023-02-26T00:15:11;-0.40;1.00
17146;DHT22;8688;54.444;18.444;2023-02-26T00:17:47;-0.40;1.00
17146;DHT22;8688;54.444;18.444;2023-02-26T00:20:16;-0.50;1.00
17146;DHT22;8688;54.444;18.444;2023-02-26T00:22:44;-0.50;1.00
17146;DHT22;8688;54.444;18.444;2023-02-26T00:25:12;-0.50;1.00
17146;DHT22;8688;54.444;18.444;2023-02-26T00:27:40;-0.60;1.00
17146;DHT22;8688;54.444;18.444;2023-02-26T00:30:10;-0.60;1.00
17146;DHT22;8688;54.444;18.444;2023-02-26T00:32:38;-0.60;1.00
17146;DHT22;8688;54.444;18.444;2023-02-26T00:35:11;-0.60;1.00
17146;DHT22;8688;54.444;18.444;2023-02-26T00:37:56;-0.60;1.00
17146;DHT22;8688;54.444;18.444;2023-02-26T00:40:33;-0.70;1.00
17146;DHT22;8688;54.444;18.444;2023-02-26T00:43:02;-0.70;1.00
17146;DHT22;8688;54.444;18.444;2023-02-26T00:45:30;-0.70;1.00
17146;DHT22;8688;54.444;18.444;2023-02-26T00:48:14;-0.80;1.00
17146;DHT22;8688;54.444;18.444;2023-02-26T00:50:50;-0.80;1.00
17146;DHT22;8688;54.444;18.444;2023-02-26T00:53:23;-0.90;1.00
17146;DHT22;8688;54.444;18.444;2023-02-26T00:55:53;-0.80;1.00
17146;DHT22;8688;54.444;18.444;2023-02-26T00:58:20;-0.90;1.00
17146;DHT22;8688;54.444;18.444;2023-02-26T01:00:48;-0.90;1.00
17146;DHT22;8688;54.444;18.444;2023-02-26T01:03:16;-0.90;1.00
17146;DHT22;8688;54.444;18.444;2023-02-26T01:05:45;-0.90;1.00
17146;DHT22;8688;54.444;18.444;2023-02-26T01:18:45;-0.60;1.00
17146;DHT22;8688;54.444;18.444;2023-02-26T01:21:18;-0.60;1.00
17146;DHT22;8688;54.444;18.444;2023-02-26T01:23:51;-0.60;1.00
17146;DHT22;8688;54.444;18.444;2023-02-26T01:26:21;-0.60;1.00
17146;DHT22;8688;54.444;18.444;2023-02-26T01:28:50;-0.60;1.00
17146;DHT22;8688;54.444;18.444;2023-02-26T01:31:31;-0.50;1.00
17146;DHT22;8688;54.444;18.444;2023-02-26T01:34:04;-0.40;1.00
17146;DHT22;8688;54.444;18.444;2023-02-26T01:36:40;-0.30;1.00
17146;DHT22;8688;54.444;18.444;2023-02-26T01:39:15;-0.30;1.00
17146;DHT22;8688;54.444;18.444;2023-02-26T01:41:48;-0.30;1.00
17146;DHT22;8688;54.444;18.444;2023-02-26T01:44:22;-0.40;1.00
17146;DHT22;8688;54.444;18.444;2023-02-26T01:47:03;-0.40;1.00
17146;DHT22;8688;54.444;18.444;2023-02-26T01:49:31;-0.40;1.00
17146;DHT22;8688;54.444;18.444;2023-02-26T01:52:01;-0.40;1.00
17146;DHT22;8688;54.444;18.444;2023-02-26T01:54:30;-0.30;1.00
17146;DHT22;8688;54.444;18.444;2023-02-26T01:56:59;-0.30;1.00
17146;DHT22;8688;54.444;18.444;2023-02-26T01:59:30;-0.20;1.00
17146;DHT22;8688;54.444;18.444;2023-02-26T02:01:59;-0.20;1.00
17146;DHT22;8688;54.444;18.444;2023-02-26T02:04:30;-0.20;1.00
17146;DHT22;8688;54.444;18.444;2023-02-26T02:07:00;-0.20;1.00
17146;DHT22;8688;54.444;18.444;2023-02-26T02:09:28;-0.20;1.00
17146;DHT22;8688;54.444;18.444;2023-02-26T02:12:05;-0.10;1.00
17146;DHT22;8688;54.444;18.444;2023-02-26T02:14:42;-0.20;1.00
17146;DHT22;8688;54.444;18.444;2023-02-26T02:17:17;-0.20;1.00
17146;DHT22;8688;54.444;18.444;2023-02-26T02:20:19;-0.20;1.00
17146;DHT22;8688;54.444;18.444;2023-02-26T02:23:09;-0.20;4.90
17146;DHT22;8688;54.444;18.444;2023-02-26T02:26:01;-0.30;15.20
17146;DHT22;8688;54.444;18.444;2023-02-26T02:28:39;-0.30;20.00
17146;DHT22;8688;54.444;18.444;2023-02-26T02:31:17;-0.30;26.00
17146;DHT22;8688;54.444;18.444;2023-02-26T02:33:49;-0.20;33.60
17146;DHT22;8688;54.444;18.444;2023-02-26T02:36:23;-0.20;42.50
17146;DHT22;8688;54.444;18.444;2023-02-26T02:38:57;-0.20;45.40
17146;DHT22;8688;54.444;18.444;2023-02-26T02:41:30;-0.20;50.50
17146;DHT22;8688;54.444;18.444;2023-02-26T02:44:01;-0.20;49.20
17146;DHT22;8688;54.444;18.444;2023-02-26T02:46:33;-0.20;48.00
17146;DHT22;8688;54.444;18.444;2023-02-26T02:49:03;-0.20;45.90
17146;DHT22;8688;54.444;18.444;2023-02-26T02:51:34;-0.20;36.50
17146;DHT22;8688;54.444;18.444;2023-02-26T02:54:07;-0.20;2.20
17146;DHT22;8688;54.444;18.444;2023-02-26T02:56:39;-0.20;23.20
17146;DHT22;8688;54.444;18.444;2023-02-26T02:59:14;-0.20;45.70
17146;DHT22;8688;54.444;18.444;2023-02-26T03:01:45;-0.30;54.80
17146;DHT22;8688;54.444;18.444;2023-02-26T03:04:16;-0.30;57.00
17146;DHT22;8688;54.444;18.444;2023-02-26T03:06:43;-0.30;59.70
17146;DHT22;8688;54.444;18.444;2023-02-26T03:09:12;-0.30;60.10
17146;DHT22;8688;54.444;18.444;2023-02-26T03:11:39;-0.30;68.10
17146;DHT22;8688;54.444;18.444;2023-02-26T03:14:08;-0.20;70.80
17146;DHT22;8688;54.444;18.444;2023-02-26T03:19:43;-0.20;80.10
17146;DHT22;8688;54.444;18.444;2023-02-26T03:22:16;-0.10;85.70
17146;DHT22;8688;54.444;18.444;2023-02-26T03:24:49;-0.10;86.90
17146;DHT22;8688;54.444;18.444;2023-02-26T03:27:22;-0.20;89.30
17146;DHT22;8688;54.444;18.444;2023-02-26T03:29:53;-0.30;84.60
17146;DHT22;8688;54.444;18.444;2023-02-26T03:32:26;-0.40;80.30
17146;DHT22;8688;54.444;18.444;2023-02-26T03:35:02;-0.50;75.90
17146;DHT22;8688;54.444;18.444;2023-02-26T03:37:46;-0.50;81.50
17146;DHT22;8688;54.444;18.444;2023-02-26T03:40:18;-0.40;77.60
17146;DHT22;8688;54.444;18.444;2023-02-26T03:42:50;-0.40;83.00
17146;DHT22;8688;54.444;18.444;2023-02-26T03:45:23;-0.40;85.40
17146;DHT22;8688;54.444;18.444;2023-02-26T03:47:53;-0.40;89.60
17146;DHT22;8688;54.444;18.444;2023-02-26T03:50:27;-0.40;68.40
17146;DHT22;8688;54.444;18.444;2023-02-26T03:52:56;-0.40;77.10
17146;DHT22;8688;54.444;18.444;2023-02-26T03:55:30;-0.30;83.90
17146;DHT22;8688;54.444;18.444;2023-02-26T03:57:59;-0.30;89.50
17146;DHT22;8688;54.444;18.444;2023-02-26T04:00:28;-0.20;94.50
17146;DHT22;8688;54.444;18.444;2023-02-26T04:02:59;-0.20;96.80
17146;DHT22;8688;54.444;18.444;2023-02-26T04:05:32;-0.20;99.20
17146;DHT22;8688;54.444;18.444;2023-02-26T04:08:01;-0.10;99.90
17146;DHT22;8688;54.444;18.444;2023-02-26T04:10:33;-0.10;99.90
17146;DHT22;8688;54.444;18.444;2023-02-26T04:13:02;-0.10;99.90
17146;DHT22;8688;54.444;18.444;2023-02-26T04:15:30;-0.10;99.90
17146;DHT22;8688;54.444;18.444;2023-02-26T04:17:57;-0.10;99.90
17146;DHT22;8688;54.444;18.444;2023-02-26T04:20:24;-0.10;99.90
17146;DHT22;8688;54.444;18.444;2023-02-26T04:22:53;0.00;99.90
17146;DHT22;8688;54.444;18.444;2023-02-26T04:25:21;0.00;99.90
17146;DHT22;8688;54.444;18.444;2023-02-26T04:27:49;0.00;99.90
17146;DHT22;8688;54.444;18.444;2023-02-26T04:30:17;0.10;99.90
17146;DHT22;8688;54.444;18.444;2023-02-26T04:32:44;0.00;99.90
17146;DHT22;8688;54.444;18.444;2023-02-26T04:35:12;0.00;99.90
17146;DHT22;8688;54.444;18.444;2023-02-26T04:37:40;0.00;99.90
17146;DHT22;8688;54.444;18.444;2023-02-26T04:40:10;0.00;43.60
17146;DHT22;8688;54.444;18.444;2023-02-26T04:42:38;0.10;1.00
17146;DHT22;8688;54.444;18.444;2023-02-26T04:45:06;0.10;1.00
17146;DHT22;8688;54.444;18.444;2023-02-26T04:47:34;0.20;1.00
17146;DHT22;8688;54.444;18.444;2023-02-26T04:50:01;0.20;99.90
17146;DHT22;8688;54.444;18.444;2023-02-26T04:52:29;0.20;99.90
17146;DHT22;8688;54.444;18.444;2023-02-26T04:54:56;0.20;99.90
17146;DHT22;8688;54.444;18.444;2023-02-26T04:57:25;0.30;99.90
17146;DHT22;8688;54.444;18.444;2023-02-26T04:59:53;0.30;99.90
17146;DHT22;8688;54.444;18.444;2023-02-26T05:02:20;0.30;97.60
17146;DHT22;8688;54.444;18.444;2023-02-26T05:04:47;0.30;99.90
17146;DHT22;8688;54.444;18.444;2023-02-26T05:07:15;0.30;99.90
17146;DHT22;8688;54.444;18.444;2023-02-26T05:09:42;0.30;99.90
17146;DHT22;8688;54.444;18.444;2023-02-26T05:12:10;0.30;99.90
17146;DHT22;8688;54.444;18.444;2023-02-26T05:14:38;0.30;99.90
17146;DHT22;8688;54.444;18.444;2023-02-26T05:17:06;0.30;99.90
17146;DHT22;8688;54.444;18.444;2023-02-26T05:19:33;0.20;99.90
17146;DHT22;8688;54.444;18.444;2023-02-26T05:22:01;0.20;99.90
17146;DHT22;8688;54.444;18.444;2023-02-26T05:24:28;0.10;99.90
17146;DHT22;8688;54.444;18.444;2023-02-26T05:26:56;0.10;99.90
17146;DHT22;8688;54.444;18.444;2023-02-26T05:29:23;0.10;99.90
17146;DHT22;8688;54.444;18.444;2023-02-26T05:39:38;0.10;99.90
17146;DHT22;8688;54.444;18.444;2023-02-26T05:42:07;0.00;99.90
17146;DHT22;8688;54.444;18.444;2023-02-26T05:44:34;0.00;99.90
17146;DHT22;8688;54.444;18.444;2023-02-26T05:47:02;0.10;99.90
17146;DHT22;8688;54.444;18.444;2023-02-26T05:49:29;0.10;99.90
17146;DHT22;8688;54.444;18.444;2023-02-26T05:51:57;0.00;99.90
17146;DHT22;8688;54.444;18.444;2023-02-26T05:54:24;0.00;99.90
17146;DHT22;8688;54.444;18.444;2023-02-26T05:56:53;0.00;99.90
17146;DHT22;8688;54.444;18.444;2023-02-26T05:59:21;0.10;99.90
17146;DHT22;8688;54.444;18.444;2023-02-26T06:09:28;0.10;1.00
17146;DHT22;8688;54.444;18.444;2023-02-26T06:11:57;0.20;1.00
17146;DHT22;8688;54.444;18.444;2023-02-26T06:14:24;0.20;1.00
17146;DHT22;8688;54.444;18.444;2023-02-26T06:16:52;0.20;1.00
17146;DHT22;8688;54.444;18.444;2023-02-26T06:19:19;0.20;1.00
17146;DHT22;8688;54.444;18.444;2023-02-26T06:21:47;0.10;1.00
17146;DHT22;8688;54.444;18.444;2023-02-26T06:24:14;0.20;1.00
17146;DHT22;8688;54.444;18.444;2023-02-26T06:26:41;0.20;1.00
17146;DHT22;8688;54.444;18.444;2023-02-26T06:29:10;0.20;99.90
17146;DHT22;8688;54.444;18.444;2023-02-26T06:31:38;0.30;1.00
17146;DHT22;8688;54.444;18.444;2023-02-26T06:34:05;0.30;93.60
17146;DHT22;8688;54.444;18.444;2023-02-26T06:36:32;0.20;1.00
17146;DHT22;8688;54.444;18.444;2023-02-26T06:39:00;0.30;99.90
17146;DHT22;8688;54.444;18.444;2023-02-26T06:41:27;0.30;99.90
17146;DHT22;8688;54.444;18.444;2023-02-26T06:43:55;0.30;1.00
17146;DHT22;8688;54.444;18.444;2023-02-26T06:46:23;0.20;1.00
17146;DHT22;8688;54.444;18.444;2023-02-26T06:48:51;0.20;99.90
17146;DHT22;8688;54.444;18.444;2023-02-26T06:51:18;0.10;1.00
17146;DHT22;8688;54.444;18.444;2023-02-26T06:53:45;0.10;99.90
17146;DHT22;8688;54.444;18.444;2023-02-26T06:56:13;0.20;1.00
17146;DHT22;8688;54.444;18.444;2023-02-26T06:58:40;0.20;99.90
17146;DHT22;8688;54.444;18.444;2023-02-26T07:01:08;0.20;1.00
17146;DHT22;8688;54.444;18.444;2023-02-26T07:03:37;0.30;99.90
17146;DHT22;8688;54.444;18.444;2023-02-26T07:06:05;0.30;99.90
17146;DHT22;8688;54.444;18.444;2023-02-26T07:08:33;0.30;1.00
17146;DHT22;8688;54.444;18.444;2023-02-26T07:11:01;0.30;1.00
17146;DHT22;8688;54.444;18.444;2023-02-26T07:13:28;0.30;99.90
17146;DHT22;8688;54.444;18.444;2023-02-26T07:15:56;0.40;99.90
17146;DHT22;8688;54.444;18.444;2023-02-26T07:18:23;0.50;99.90
17146;DHT22;8688;54.444;18.444;2023-02-26T07:20:52;0.50;99.90
17146;DHT22;8688;54.444;18.444;2023-02-26T07:23:20;0.50;17.50
17146;DHT22;8688;54.444;18.444;2023-02-26T07:25:48;0.50;1.00
17146;DHT22;8688;54.444;18.444;2023-02-26T07:28:15;0.50;1.00
17146;DHT22;8688;54.444;18.444;2023-02-26T07:30:43;0.50;1.00
17146;DHT22;8688;54.444;18.444;2023-02-26T07:33:11;0.50;1.00
17146;DHT22;8688;54.444;18.444;2023-02-26T07:35:39;0.50;1.00
17146;DHT22;8688;54.444;18.444;2023-02-26T07:38:07;0.50;99.90
17146;DHT22;8688;54.444;18.444;2023-02-26T07:40:35;0.50;99.90
17146;DHT22;8688;54.444;18.444;2023-02-26T07:43:02;0.60;99.90
17146;DHT22;8688;54.444;18.444;2023-02-26T07:45:30;0.60;99.90
17146;DHT22;8688;54.444;18.444;2023-02-26T07:47:57;0.60;99.90
17146;DHT22;8688;54.444;18.444;2023-02-26T07:50:24;0.70;99.90
17146;DHT22;8688;54.444;18.444;2023-02-26T07:52:52;0.70;99.90
17146;DHT22;8688;54.444;18.444;2023-02-26T07:55:21;0.60;99.90
17146;DHT22;8688;54.444;18.444;2023-02-26T07:57:49;0.60;99.90
17146;DHT22;8688;54.444;18.444;2023-02-26T08:00:17;0.60;91.00
17146;DHT22;8688;54.444;18.444;2023-02-26T08:02:45;0.70;1.90
17146;DHT22;8688;54.444;18.444;2023-02-26T08:05:12;0.70;42.50
17146;DHT22;8688;54.444;18.444;2023-02-26T08:07:40;0.70;1.00
17146;DHT22;8688;54.444;18.444;2023-02-26T08:10:08;0.70;1.00
17146;DHT22;8688;54.444;18.444;2023-02-26T08:12:37;0.70;1.00
17146;DHT22;8688;54.444;18.444;2023-02-26T08:15:06;0.70;1.00
17146;DHT22;8688;54.444;18.444;2023-02-26T08:17:33;0.70;1.00
17146;DHT22;8688;54.444;18.444;2023-02-26T08:20:03;0.70;1.00
17146;DHT22;8688;54.444;18.444;2023-02-26T08:22:31;0.70;1.00
17146;DHT22;8688;54.444;18.444;2023-02-26T08:24:58;0.70;1.00
17146;DHT22;8688;54.444;18.444;2023-02-26T08:27:26;0.70;1.00
17146;DHT22;8688;54.444;18.444;2023-02-26T08:29:55;0.80;1.00
17146;DHT22;8688;54.444;18.444;2023-02-26T08:32:22;0.80;1.00
17146;DHT22;8688;54.444;18.444;2023-02-26T08:34:51;0.80;1.00
17146;DHT22;8688;54.444;18.444;2023-02-26T08:37:20;0.80;1.00
17146;DHT22;8688;54.444;18.444;2023-02-26T08:39:49;0.80;1.00
17146;DHT22;8688;54.444;18.444;2023-02-26T08:42:16;0.80;1.00
17146;DHT22;8688;54.444;18.444;2023-02-26T08:44:45;0.80;1.00
17146;DHT22;8688;54.444;18.444;2023-02-26T08:47:14;0.70;1.00
17146;DHT22;8688;54.444;18.444;2023-02-26T08:49:41;0.70;1.00
17146;DHT22;8688;54.444;18.444;2023-02-26T08:52:09;0.80;1.00
17146;DHT22;8688;54.444;18.444;2023-02-26T08:54:36;0.90;1.00
17146;DHT22;8688;54.444;18.444;2023-02-26T08:57:03;0.80;1.00
17146;DHT22;8688;54.444;18.444;2023-02-26T08:59:31;0.80;1.00
17146;DHT22;8688;54.444;18.444;2023-02-26T09:01:58;0.80;1.00
17146;DHT22;8688;54.444;18.444;2023-02-26T09:04:27;0.80;1.00
17146;DHT22;8688;54.444;18.444;2023-02-26T09:06:54;0.90;1.00
17146;DHT22;8688;54.444;18.444;2023-02-26T09:09:22;1.00;1.00
17146;DHT22;8688;54.444;18.444;2023-02-26T09:11:49;1.10;1.00
17146;DHT22;8688;54.444;18.444;2023-02-26T09:14:16;1.00;1.00
17146;DHT22;8688;54.444;18.444;2023-02-26T09:16:44;1.00;1.00
17146;DHT22;8688;54.444;18.444;2023-02-26T09:19:11;1.00;1.00
17146;DHT22;8688;54.444;18.444;2023-02-26T09:21:40;1.00;1.00
17146;DHT22;8688;54.444;18.444;2023-02-26T09:24:08;1.10;1.00
17146;DHT22;8688;54.444;18.444;2023-02-26T09:26:35;1.10;1.00
17146;DHT22;8688;54.444;18.444;2023-02-26T09:29:03;1.10;1.00
17146;DHT22;8688;54.444;18.444;2023-02-26T09:31:30;1.20;1.00
17146;DHT22;8688;54.444;18.444;2023-02-26T09:33:58;1.20;1.00
17146;DHT22;8688;54.444;18.444;2023-02-26T09:36:25;1.20;1.00
17146;DHT22;8688;54.444;18.444;2023-02-26T09:38:54;1.30;1.00
17146;DHT22;8688;54.444;18.444;2023-02-26T09:41:26;1.30;1.00
17146;DHT22;8688;54.444;18.444;2023-02-26T09:44:08;1.30;1.00
17146;DHT22;8688;54.444;18.444;2023-02-26T09:46:44;1.40;1.00
17146;DHT22;8688;54.444;18.444;2023-02-26T09:49:20;1.40;1.00
17146;DHT22;8688;54.444;18.444;2023-02-26T09:51:51;1.40;1.00
17146;DHT22;8688;54.444;18.444;2023-02-26T09:54:23;1.50;1.00
17146;DHT22;8688;54.444;18.444;2023-02-26T09:56:52;1.60;1.00
17146;DHT22;8688;54.444;18.444;2023-02-26T09:59:21;1.60;1.00
17146;DHT22;8688;54.444;18.444;2023-02-26T10:01:56;1.60;1.00
17146;DHT22;8688;54.444;18.444;2023-02-26T10:04:36;1.60;1.00
17146;DHT22;8688;54.444;18.444;2023-02-26T10:07:13;1.50;1.00
17146;DHT22;8688;54.444;18.444;2023-02-26T10:09:56;1.50;1.00
17146;DHT22;8688;54.444;18.444;2023-02-26T10:12:28;1.50;1.00
17146;DHT22;8688;54.444;18.444;2023-02-26T10:14:59;1.30;1.00
17146;DHT22;8688;54.444;18.444;2023-02-26T10:17:31;1.20;99.90
17146;DHT22;8688;54.444;18.444;2023-02-26T10:20:02;1.30;99.90
17146;DHT22;8688;54.444;18.444;2023-02-26T10:22:35;1.30;99.90
17146;DHT22;8688;54.444;18.444;2023-02-26T10:25:10;1.40;99.90
17146;DHT22;8688;54.444;18.444;2023-02-26T10:27:49;1.40;99.90
17146;DHT22;8688;54.444;18.444;2023-02-26T10:30:25;1.30;99.90
17146;DHT22;8688;54.444;18.444;2023-02-26T10:33:00;1.30;99.90
17146;DHT22;8688;54.444;18.444;2023-02-26T10:35:33;1.30;99.90
17146;DHT22;8688;54.444;18.444;2023-02-26T10:38:05;1.20;99.90
17146;DHT22;8688;54.444;18.444;2023-02-26T10:40:41;1.20;99.90
17146;DHT22;8688;54.444;18.444;2023-02-26T10:43:17;1.20;99.90
17146;DHT22;8688;54.444;18.444;2023-02-26T10:45:55;1.20;99.90
17146;DHT22;8688;54.444;18.444;2023-02-26T10:48:36;1.20;99.90
17146;DHT22;8688;54.444;18.444;2023-02-26T10:51:14;1.10;99.90
17146;DHT22;8688;54.444;18.444;2023-02-26T10:53:45;1.10;99.90
17146;DHT22;8688;54.444;18.444;2023-02-26T10:56:19;1.00;37.60
17146;DHT22;8688;54.444;18.444;2023-02-26T10:58:50;1.10;52.60
17146;DHT22;8688;54.444;18.444;2023-02-26T11:01:21;1.00;23.60
17146;DHT22;8688;54.444;18.444;2023-02-26T11:03:53;1.00;82.50
17146;DHT22;8688;54.444;18.444;2023-02-26T11:06:23;1.00;99.90
17146;DHT22;8688;54.444;18.444;2023-02-26T11:08:54;1.10;99.90
17146;DHT22;8688;54.444;18.444;2023-02-26T11:11:45;1.10;99.90
17146;DHT22;8688;54.444;18.444;2023-02-26T11:14:15;1.10;1.00
17146;DHT22;8688;54.444;18.444;2023-02-26T11:16:47;1.20;99.90
17146;DHT22;8688;54.444;18.444;2023-02-26T11:19:16;1.20;10.40
17146;DHT22;8688;54.444;18.444;2023-02-26T11:21:46;1.20;1.00
17146;DHT22;8688;54.444;18.444;2023-02-26T11:24:20;1.20;5.00
17146;DHT22;8688;54.444;18.444;2023-02-26T11:26:58;1.20;7.70
17146;DHT22;8688;54.444;18.444;2023-02-26T11:29:36;1.30;1.00
17146;DHT22;8688;54.444;18.444;2023-02-26T11:32:05;1.30;1.00
17146;DHT22;8688;54.444;18.444;2023-02-26T11:34:34;1.30;2.40
17146;DHT22;8688;54.444;18.444;2023-02-26T11:37:03;1.30;1.00
17146;DHT22;8688;54.444;18.444;2023-02-26T11:39:34;1.30;1.00
17146;DHT22;8688;54.444;18.444;2023-02-26T11:42:04;1.30;1.00
17146;DHT22;8688;54.444;18.444;2023-02-26T11:44:36;1.20;1.00
17146;DHT22;8688;54.444;18.444;2023-02-26T11:47:08;1.30;1.00
17146;DHT22;8688;54.444;18.444;2023-02-26T11:49:41;1.40;1.00
17146;DHT22;8688;54.444;18.444;2023-02-26T11:52:20;1.40;1.00
17146;DHT22;8688;54.444;18.444;2023-02-26T11:54:59;1.40;1.00
17146;DHT22;8688;54.444;18.444;2023-02-26T11:57:31;1.40;1.00
17146;DHT22;8688;54.444;18.444;2023-02-26T12:00:00;1.40;1.00
17146;DHT22;8688;54.444;18.444;2023-02-26T12:02:32;1.40;1.00
17146;DHT22;8688;54.444;18.444;2023-02-26T12:05:04;1.30;99.90
17146;DHT22;8688;54.444;18.444;2023-02-26T12:07:32;1.40;99.90
17146;DHT22;8688;54.444;18.444;2023-02-26T12:10:00;1.30;99.90
17146;DHT22;8688;54.444;18.444;2023-02-26T12:12:45;1.30;99.90
17146;DHT22;8688;54.444;18.444;2023-02-26T12:15:28;1.30;99.90
17146;DHT22;8688;54.444;18.444;2023-02-26T12:18:06;1.30;99.90
17146;DHT22;8688;54.444;18.444;2023-02-26T12:20:42;1.30;99.90
17146;DHT22;8688;54.444;18.444;2023-02-26T12:23:30;1.30;99.90
17146;DHT22;8688;54.444;18.444;2023-02-26T12:26:15;1.30;99.90
17146;DHT22;8688;54.444;18.444;2023-02-26T12:32:05;1.20;99.90
17146;DHT22;8688;54.444;18.444;2023-02-26T12:34:58;1.20;99.90
17146;DHT22;8688;54.444;18.444;2023-02-26T12:37:40;1.20;99.90
17146;DHT22;8688;54.444;18.444;2023-02-26T12:40:24;1.20;99.90
17146;DHT22;8688;54.444;18.444;2023-02-26T12:43:04;1.20;99.90
17146;DHT22;8688;54.444;18.444;2023-02-26T12:45:44;1.20;99.90
17146;DHT22;8688;54.444;18.444;2023-02-26T12:51:19;1.20;99.90
17146;DHT22;8688;54.444;18.444;2023-02-26T12:54:02;1.30;99.90
17146;DHT22;8688;54.444;18.444;2023-02-26T12:56:55;1.30;99.90
17146;DHT22;8688;54.444;18.444;2023-02-26T12:59:44;1.30;99.90
17146;DHT22;8688;54.444;18.444;2023-02-26T13:02:52;1.20;99.90
17146;DHT22;8688;54.444;18.444;2023-02-26T13:05:37;1.20;99.90
17146;DHT22;8688;54.444;18.444;2023-02-26T13:08:16;1.10;99.90
17146;DHT22;8688;54.444;18.444;2023-02-26T13:11:00;1.10;99.90
17146;DHT22;8688;54.444;18.444;2023-02-26T13:13:49;1.10;99.90
17146;DHT22;8688;54.444;18.444;2023-02-26T13:16:36;1.10;99.90
17146;DHT22;8688;54.444;18.444;2023-02-26T13:19:17;1.20;99.90
17146;DHT22;8688;54.444;18.444;2023-02-26T13:21:50;1.20;99.90
17146;DHT22;8688;54.444;18.444;2023-02-26T13:24:22;1.20;99.90
17146;DHT22;8688;54.444;18.444;2023-02-26T13:26:52;1.20;99.90
17146;DHT22;8688;54.444;18.444;2023-02-26T13:29:24;1.10;99.90
17146;DHT22;8688;54.444;18.444;2023-02-26T13:31:57;1.10;99.90
17146;DHT22;8688;54.444;18.444;2023-02-26T13:34:35;1.10;99.90
17146;DHT22;8688;54.444;18.444;2023-02-26T13:37:05;1.00;99.90
17146;DHT22;8688;54.444;18.444;2023-02-26T13:39:44;1.10;99.90
17146;DHT22;8688;54.444;18.444;2023-02-26T13:42:26;1.10;99.90
17146;DHT22;8688;54.444;18.444;2023-02-26T13:47:57;1.20;99.90
17146;DHT22;8688;54.444;18.444;2023-02-26T13:50:44;1.20;99.90
17146;DHT22;8688;54.444;18.444;2023-02-26T13:53:51;1.10;99.90
17146;DHT22;8688;54.444;18.444;2023-02-26T13:56:22;1.10;99.90
17146;DHT22;8688;54.444;18.444;2023-02-26T14:02:47;1.30;99.90
17146;DHT22;8688;54.444;18.444;2023-02-26T14:05:50;1.20;99.90
17146;DHT22;8688;54.444;18.444;2023-02-26T14:11:41;1.40;99.90
17146;DHT22;8688;54.444;18.444;2023-02-26T14:19:42;1.30;99.90
17146;DHT22;8688;54.444;18.444;2023-02-26T14:22:19;1.20;99.90
17146;DHT22;8688;54.444;18.444;2023-02-26T14:24:54;1.10;99.90
17146;DHT22;8688;54.444;18.444;2023-02-26T14:27:32;1.00;1.00
17146;DHT22;8688;54.444;18.444;2023-02-26T14:30:15;0.90;29.50
17146;DHT22;8688;54.444;18.444;2023-02-26T14:32:48;0.80;99.90
17146;DHT22;8688;54.444;18.444;2023-02-26T14:35:20;0.60;1.00
17146;DHT22;8688;54.444;18.444;2023-02-26T14:37:56;0.60;99.90
17146;DHT22;8688;54.444;18.444;2023-02-26T14:40:28;0.50;1.00
17146;DHT22;8688;54.444;18.444;2023-02-26T14:43:00;0.50;1.00
17146;DHT22;8688;54.444;18.444;2023-02-26T14:45:30;0.40;1.00
17146;DHT22;8688;54.444;18.444;2023-02-26T14:48:02;0.50;1.00
17146;DHT22;8688;54.444;18.444;2023-02-26T14:50:37;0.60;1.00
17146;DHT22;8688;54.444;18.444;2023-02-26T14:56:19;0.70;1.00
17146;DHT22;8688;54.444;18.444;2023-02-26T14:59:12;0.70;99.90
17146;DHT22;8688;54.444;18.444;2023-02-26T15:01:47;0.70;1.00
17146;DHT22;8688;54.444;18.444;2023-02-26T15:07:20;0.90;99.90
17146;DHT22;8688;54.444;18.444;2023-02-26T15:10:09;0.80;99.90
17146;DHT22;8688;54.444;18.444;2023-02-26T15:12:53;0.90;1.00
17146;DHT22;8688;54.444;18.444;2023-02-26T15:15:36;0.90;1.00
17146;DHT22;8688;54.444;18.444;2023-02-26T15:18:24;0.90;1.00
17146;DHT22;8688;54.444;18.444;2023-02-26T15:21:02;1.00;99.90
17146;DHT22;8688;54.444;18.444;2023-02-26T15:23:38;1.00;99.90
17146;DHT22;8688;54.444;18.444;2023-02-26T15:26:15;1.00;1.00
17146;DHT22;8688;54.444;18.444;2023-02-26T15:28:45;1.00;1.00
17146;DHT22;8688;54.444;18.444;2023-02-26T15:31:15;1.00;99.90
17146;DHT22;8688;54.444;18.444;2023-02-26T15:33:48;1.00;1.00
17146;DHT22;8688;54.444;18.444;2023-02-26T15:36:20;1.00;99.90
17146;DHT22;8688;54.444;18.444;2023-02-26T15:38:53;1.00;99.90
17146;DHT22;8688;54.444;18.444;2023-02-26T15:41:26;0.90;1.00
17146;DHT22;8688;54.444;18.444;2023-02-26T15:43:58;0.80;99.90
17146;DHT22;8688;54.444;18.444;2023-02-26T15:46:28;0.70;86.80
17146;DHT22;8688;54.444;18.444;2023-02-26T15:49:01;0.60;1.00
17146;DHT22;8688;54.444;18.444;2023-02-26T15:51:35;0.60;99.90
17146;DHT22;8688;54.444;18.444;2023-02-26T15:54:06;0.50;1.00
17146;DHT22;8688;54.444;18.444;2023-02-26T15:56:39;0.40;1.00
17146;DHT22;8688;54.444;18.444;2023-02-26T15:59:11;0.40;1.00
17146;DHT22;8688;54.444;18.444;2023-02-26T16:01:43;0.40;1.00
17146;DHT22;8688;54.444;18.444;2023-02-26T16:04:13;0.40;1.00
17146;DHT22;8688;54.444;18.444;2023-02-26T16:06:44;0.40;1.00
17146;DHT22;8688;54.444;18.444;2023-02-26T16:09:17;0.40;1.00
17146;DHT22;8688;54.444;18.444;2023-02-26T16:11:49;0.40;1.00
17146;DHT22;8688;54.444;18.444;2023-02-26T16:14:24;0.40;1.00
17146;DHT22;8688;54.444;18.444;2023-02-26T16:16:56;0.40;52.10
17146;DHT22;8688;54.444;18.444;2023-02-26T16:19:32;0.40;99.90
17146;DHT22;8688;54.444;18.444;2023-02-26T16:22:10;0.40;99.90
17146;DHT22;8688;54.444;18.444;2023-02-26T16:24:41;0.30;99.90
17146;DHT22;8688;54.444;18.444;2023-02-26T16:27:13;0.20;99.90
17146;DHT22;8688;54.444;18.444;2023-02-26T16:29:50;0.10;1.00
17146;DHT22;8688;54.444;18.444;2023-02-26T16:32:22;0.10;1.00
17146;DHT22;8688;54.444;18.444;2023-02-26T16:34:53;0.10;1.00
17146;DHT22;8688;54.444;18.444;2023-02-26T16:37:32;0.10;1.00
17146;DHT22;8688;54.444;18.444;2023-02-26T16:40:16;0.10;1.00
17146;DHT22;8688;54.444;18.444;2023-02-26T16:42:54;0.00;1.00
17146;DHT22;8688;54.444;18.444;2023-02-26T16:45:45;0.00;1.00
17146;DHT22;8688;54.444;18.444;2023-02-26T16:48:21;0.00;1.00
17146;DHT22;8688;54.444;18.444;2023-02-26T16:50:57;0.00;1.00
17146;DHT22;8688;54.444;18.444;2023-02-26T16:53:33;0.00;1.00
17146;DHT22;8688;54.444;18.444;2023-02-26T16:56:07;0.00;1.00
17146;DHT22;8688;54.444;18.444;2023-02-26T16:58:45;0.10;1.00
17146;DHT22;8688;54.444;18.444;2023-02-26T17:01:17;0.10;1.00
17146;DHT22;8688;54.444;18.444;2023-02-26T17:03:46;0.10;1.00
17146;DHT22;8688;54.444;18.444;2023-02-26T17:06:21;0.10;1.00
17146;DHT22;8688;54.444;18.444;2023-02-26T17:08:52;0.10;1.00
17146;DHT22;8688;54.444;18.444;2023-02-26T17:11:24;0.10;2.60
17146;DHT22;8688;54.444;18.444;2023-02-26T17:14:12;0.10;20.00
17146;DHT22;8688;54.444;18.444;2023-02-26T17:16:45;0.00;25.30
17146;DHT22;8688;54.444;18.444;2023-02-26T17:19:14;0.00;18.80